Time;durP1;ratioP1;P1;durP2;ratioP2;P2;SDS_P1;SDS_P2;PMS_P1;PMS_P2;Temp;Humidity;BMP_temperature;BMP_pressure;BME280_temperature;BME280_humidity;BME280_pressure;Samples;Min_cycle;Max_cycle;Signal;HPM_P1;HPM_P2
2021/01/15 00:01:08;;;;;;;4.77;3.47;;;9.10;78.70;;;9.87;37.76;101647.38;4888005;28;100585;-57
2021/01/15 00:03:38;;;;;;;4.77;4.03;;;8.70;79.60;;;9.95;45.83;101653.38;4893862;28;99311;-58
2021/01/15 00:06:05;;;;;;;6.00;4.33;;;8.60;83.50;;;9.36;37.74;101655.19;4888159;28;97104;-57
2021/01/15 00:08:39;;;;;;;4.43;3.43;;;8.30;81.10;;;9.59;49.86;101658.38;4886309;28;99050;-56
2021/01/15 00:11:06;;;;;;;5.90;3.60;;;8.30;91.10;;;9.15;43.94;101664.28;4882311;28;98972;-56
2021/01/15 00:13:32;;;;;;;5.80;4.07;;;8.00;83.10;;;8.87;39.17;101667.28;4874519;28;104750;-57
2021/01/15 00:15:58;;;;;;;7.60;4.20;;;7.90;83.40;;;8.39;40.20;101668.72;4889253;28;97166;-54
2021/01/15 00:18:24;;;;;;;6.23;4.50;;;7.50;85.90;;;8.13;40.89;101668.09;4902478;28;100287;-58
2021/01/15 00:20:50;;;;;;;4.93;3.90;;;7.20;86.70;;;7.95;47.07;101664.72;4889465;28;99063;-57
2021/01/15 00:23:20;;;;;;;5.80;4.10;;;7.00;88.10;;;7.83;41.60;101680.59;4904978;28;100090;-61
2021/01/15 00:25:46;;;;;;;4.37;3.97;;;6.90;87.90;;;7.57;42.28;101672.06;4891931;28;99599;-57
2021/01/15 00:28:12;;;;;;;5.70;4.13;;;6.70;88.70;;;7.46;43.82;101675.63;4904219;28;99525;-57
2021/01/15 00:30:38;;;;;;;4.83;4.33;;;6.60;90.10;;;7.53;43.62;101678.22;4889836;28;113069;-55
2021/01/15 00:33:04;;;;;;;6.50;3.93;;;6.60;90.20;;;7.25;42.99;101685.38;4890391;28;100287;-56
2021/01/15 00:35:30;;;;;;;6.93;4.47;;;6.50;90.00;;;7.13;43.33;101687.19;4907505;28;98464;-57
2021/01/15 00:37:56;;;;;;;5.40;3.97;;;6.30;90.40;;;6.99;44.58;101688.13;4883601;28;100508;-56
2021/01/15 00:40:22;;;;;;;5.93;4.17;;;6.10;91.10;;;7.19;46.17;101686.28;4903212;28;99069;-55
2021/01/15 00:42:48;;;;;;;6.43;4.47;;;6.20;91.00;;;7.02;44.56;101693.38;4885625;28;99365;-56
2021/01/15 00:45:16;;;;;;;5.33;4.53;;;6.10;91.10;;;6.85;44.28;101691.69;4897930;28;97401;-55
2021/01/15 00:47:46;;;;;;;6.27;4.50;;;6.00;91.50;;;6.72;44.62;101692.59;4899993;28;100379;-56
2021/01/15 00:50:13;;;;;;;4.97;3.93;;;5.90;91.50;;;6.48;45.12;101688.28;4896557;28;98756;-57
2021/01/15 00:52:39;;;;;;;6.27;4.33;;;5.70;91.90;;;6.34;46.25;101689.19;4880753;28;98188;-57
2021/01/15 00:55:07;;;;;;;5.77;4.27;;;5.60;92.60;;;6.16;45.97;101688.34;4893116;28;98155;-57
2021/01/15 00:57:38;;;;;;;6.57;4.93;;;5.40;92.70;;;5.96;46.54;101695.38;4889957;28;97802;-57
2021/01/15 01:00:07;;;;;;;5.13;4.33;;;5.20;92.90;;;5.81;46.12;101690.09;4883324;28;99058;-57
2021/01/15 01:02:36;;;;;;;6.90;4.53;;;5.10;92.90;;;5.73;47.94;101702.31;4888053;28;98440;-57
2021/01/15 01:05:06;;;;;;;6.17;4.37;;;5.00;93.80;;;5.68;47.51;101690.09;5051220;22;98060;-57
2021/01/15 01:07:32;;;;;;;6.30;4.33;;;5.00;93.60;;;5.56;47.44;101695.31;4929837;28;98287;-55
2021/01/15 01:09:59;;;;;;;6.27;4.57;;;4.90;93.60;;;5.51;47.53;101685.72;4906936;28;100566;-57
2021/01/15 01:12:24;;;;;;;5.93;4.80;;;4.90;93.70;;;5.47;47.67;101704.88;4930850;28;100038;-58
2021/01/15 01:14:50;;;;;;;7.67;4.80;;;4.90;93.80;;;5.37;47.89;101698.78;4940918;28;97381;-54
2021/01/15 01:17:16;;;;;;;6.20;4.70;;;4.80;93.80;;;5.32;48.66;101700.50;4916197;28;97047;-61
2021/01/15 01:19:42;;;;;;;5.57;4.87;;;4.80;94.20;;;5.32;47.76;101700.50;4920979;28;105149;-61
2021/01/15 01:22:08;;;;;;;6.17;4.97;;;4.80;93.70;;;5.19;48.24;101703.94;4935027;28;98011;-56
2021/01/15 01:24:34;;;;;;;5.47;4.77;;;4.70;94.10;;;5.17;49.00;101710.91;4922805;28;108819;-57
2021/01/15 01:27:00;;;;;;;5.23;4.70;;;4.60;94.50;;;5.12;49.25;101716.13;4937815;28;100372;-57
2021/01/15 01:29:26;;;;;;;8.77;5.07;;;4.60;94.90;;;5.07;48.82;101716.13;4922402;28;98875;-59
2021/01/15 01:31:52;;;;;;;6.23;5.33;;;4.60;94.70;;;5.15;48.10;101718.75;4941854;28;101172;-58
2021/01/15 01:34:18;;;;;;;5.87;4.53;;;4.60;94.30;;;5.16;48.97;101724.84;4923506;28;98458;-62
2021/01/15 01:36:44;;;;;;;7.30;4.70;;;4.60;94.60;;;5.15;48.18;101723.13;4934735;28;103251;-57
2021/01/15 01:39:09;;;;;;;6.20;5.00;;;4.60;94.00;;;5.18;48.40;101733.59;4934231;28;97901;-58
2021/01/15 01:41:35;;;;;;;8.67;5.03;;;4.70;94.20;;;5.07;48.73;101739.66;4916472;28;102084;-58
2021/01/15 01:44:01;;;;;;;8.67;5.63;;;4.60;94.70;;;5.04;48.77;101737.00;4948618;28;98114;-56
2021/01/15 01:46:27;;;;;;;6.97;5.53;;;4.50;94.80;;;5.00;48.99;101735.25;4921771;28;104152;-61
2021/01/15 01:48:53;;;;;;;5.90;5.30;;;4.50;94.90;;;4.94;49.05;101735.25;4951117;28;98804;-59
2021/01/15 01:51:19;;;;;;;5.63;4.93;;;4.40;95.20;;;4.89;49.64;101744.78;4913543;28;98739;-61
2021/01/15 01:53:46;;;;;;;6.97;4.90;;;4.40;95.20;;;4.85;49.46;101744.78;4949882;28;98018;-59
2021/01/15 01:56:12;;;;;;;5.73;5.00;;;4.30;95.30;;;4.81;49.83;101743.91;4936970;28;106614;-60
2021/01/15 01:58:38;;;;;;;6.47;5.37;;;4.20;95.50;;;4.76;49.22;101745.59;4932062;28;99223;-59
2021/01/15 02:01:06;;;;;;;6.30;5.70;;;4.20;95.50;;;4.74;49.11;101755.16;4910563;28;97026;-54
2021/01/15 02:03:32;;;;;;;7.17;5.90;;;4.20;95.40;;;4.74;48.58;101760.41;4930018;28;97727;-60
2021/01/15 02:05:58;;;;;;;6.67;5.50;;;4.20;94.90;;;4.84;49.02;101767.44;4918617;28;100155;-60
2021/01/15 02:08:28;;;;;;;9.10;6.27;;;4.40;95.20;;;4.90;49.25;101770.06;4946797;28;99322;-61
2021/01/15 02:11:44;;;;;;;9.13;6.40;;;4.40;95.10;;;5.03;49.03;101771.88;4926978;28;98118;-61
2021/01/15 02:14:58;;;;;;;7.70;6.20;;;4.60;95.00;;;5.11;48.46;101769.31;4927213;28;97700;-60
2021/01/15 02:17:27;;;;;;;7.10;5.77;;;4.70;94.60;;;5.11;48.57;101771.06;4916063;28;102341;-59
2021/01/15 02:20:21;;;;;;;6.10;5.27;;;4.70;94.60;;;5.17;48.70;101776.31;4908133;28;97276;-58
2021/01/15 02:23:13;;;;;;;6.97;6.00;;;4.70;94.70;;;5.18;49.00;101772.81;4909411;28;98908;-59
2021/01/15 02:26:22;;;;;;;7.17;5.80;;;4.80;94.80;;;5.11;50.00;101778.91;4943972;28;97331;-61
2021/01/15 02:29:07;;;;;;;6.73;5.73;;;4.70;95.40;;;5.05;50.41;101784.97;4938164;28;103234;-60
2021/01/15 02:31:45;;;;;;;9.13;5.80;;;4.60;96.00;;;5.00;49.99;101782.34;4950391;28;97276;-59
2021/01/15 02:34:35;;;;;;;8.47;6.00;;;4.60;95.80;;;5.01;50.39;101781.47;4973122;28;96640;-57
2021/01/15 02:37:58;;;;;;;7.50;5.70;;;4.50;96.20;;;5.04;50.15;101784.09;4946667;28;97627;-57
2021/01/15 02:40:49;;;;;;;8.23;6.07;;;4.50;95.90;;;5.11;50.30;101787.63;4934230;28;104172;-59
2021/01/15 02:43:16;;;;;;;7.17;5.53;;;4.60;96.40;;;5.19;50.43;101787.66;4953126;28;100265;-55
2021/01/15 02:45:42;;;;;;;8.77;6.37;;;4.70;96.10;;;5.27;49.35;101788.56;4951691;28;99770;-53
2021/01/15 02:48:15;;;;;;;7.20;5.63;;;4.80;95.60;;;5.36;48.86;101789.50;4950516;28;97626;-56
2021/01/15 02:50:46;;;;;;;6.43;5.63;;;4.90;95.10;;;5.34;50.05;101799.03;4952841;28;100115;-57
2021/01/15 02:53:15;;;;;;;7.30;5.33;;;4.90;95.90;;;5.31;50.25;101793.81;4928404;28;97431;-56
2021/01/15 02:55:41;;;;;;;6.90;5.27;;;4.80;96.10;;;5.42;50.59;101798.22;4935535;28;96881;-58
2021/01/15 02:58:07;;;;;;;7.60;5.20;;;4.90;96.30;;;5.49;49.25;101805.19;4949842;28;98043;-59
2021/01/15 03:00:33;;;;;;;5.67;4.97;;;5.00;95.50;;;5.57;49.35;101812.22;4939502;28;100623;-59
2021/01/15 03:03:32;;;;;;;6.63;5.77;;;5.20;95.00;;;5.63;50.17;101814.84;4952401;28;105466;-57
2021/01/15 03:06:16;;;;;;;6.57;5.30;;;5.20;95.60;;;5.69;49.45;101819.25;4927642;28;98649;-56
2021/01/15 03:08:45;;;;;;;7.03;5.03;;;5.20;95.50;;;5.80;48.34;101822.78;4957488;28;97024;-58
2021/01/15 03:11:11;;;;;;;6.20;5.60;;;5.30;95.00;;;5.87;47.45;101826.28;4941224;28;98558;-55
2021/01/15 03:13:38;;;;;;;5.57;5.07;;;5.40;94.50;;;5.83;48.43;101824.53;4962802;28;121707;-58
2021/01/15 03:16:05;;;;;;;6.40;5.37;;;5.40;94.80;;;5.87;48.70;101826.28;4954028;28;96817;-53
2021/01/15 03:18:32;;;;;;;7.03;5.27;;;5.40;95.20;;;5.83;48.59;101821.91;4943301;28;97086;-58
2021/01/15 03:21:02;;;;;;;7.47;4.90;;;5.30;95.30;;;5.84;49.30;101828.88;4973399;28;97201;-58
2021/01/15 03:23:28;;;;;;;6.67;5.23;;;5.40;95.70;;;5.79;49.62;101828.00;4970462;28;97342;-58
2021/01/15 03:25:57;;;;;;;5.30;4.80;;;5.40;95.90;;;5.74;49.13;101834.97;4943283;28;99517;-57
2021/01/15 03:28:23;;;;;;;6.40;5.27;;;5.30;95.50;;;5.72;49.55;101832.34;4966310;28;98882;-57
2021/01/15 03:30:49;;;;;;;8.17;5.07;;;5.30;95.70;;;5.82;48.13;101838.50;4946694;28;122097;-59
2021/01/15 03:33:14;;;;;;;7.30;5.33;;;5.40;94.70;;;5.80;49.05;101840.22;4974378;28;119947;-54
2021/01/15 03:35:40;;;;;;;7.00;5.17;;;5.40;95.30;;;5.86;48.71;101850.72;4926626;28;102714;-52
2021/01/15 03:38:10;;;;;;;6.60;5.30;;;5.50;95.00;;;5.83;48.82;101842.84;4954641;28;97009;-53
2021/01/15 03:40:42;;;;;;;6.87;5.40;;;5.50;95.10;;;5.83;49.85;101837.63;4943146;28;99014;-57
2021/01/15 03:43:16;;;;;;;6.67;5.57;;;5.40;95.70;;;5.82;49.25;101838.50;4957069;28;97488;-58
2021/01/15 03:45:43;;;;;;;6.47;5.20;;;5.40;95.60;;;5.92;50.54;101842.88;4963001;28;97014;-53
2021/01/15 03:48:09;;;;;;;7.43;5.77;;;5.50;96.00;;;5.95;48.96;101850.78;4956577;28;96977;-56
2021/01/15 03:50:39;;;;;;;8.67;6.10;;;5.60;95.30;;;6.00;48.68;101851.66;4965231;28;97631;-55
2021/01/15 03:53:05;;;;;;;12.10;7.27;;;5.60;95.10;;;6.02;48.67;101863.00;4955272;28;98806;-56
2021/01/15 03:55:31;;;;;;;8.17;6.90;;;5.60;95.20;;;6.02;48.93;101855.16;4960010;28;99097;-60
2021/01/15 03:57:57;;;;;;;9.53;7.00;;;5.70;95.30;;;6.04;49.70;101860.38;4957093;28;101344;-55
2021/01/15 04:00:23;;;;;;;8.60;7.13;;;5.70;95.70;;;6.04;48.99;101861.25;4945636;28;100337;-59
2021/01/15 04:02:49;;;;;;;11.00;7.17;;;5.70;95.50;;;6.05;49.39;101862.13;4957931;28;100221;-57
2021/01/15 04:05:15;;;;;;;10.40;7.83;;;5.60;95.70;;;6.08;49.16;101867.41;4951304;28;97124;-60
2021/01/15 04:07:42;;;;;;;10.17;7.37;;;5.60;95.80;;;6.06;49.25;101864.75;4951694;28;103289;-58
2021/01/15 04:10:14;;;;;;;9.07;7.70;;;5.70;95.60;;;6.07;49.53;101876.97;4953669;28;97665;-57
2021/01/15 04:12:41;;;;;;;14.37;9.30;;;5.70;95.90;;;6.05;49.30;101876.09;4945045;28;96844;-55
2021/01/15 04:15:13;;;;;;;9.53;7.83;;;5.60;95.70;;;6.12;49.75;101877.00;4951726;28;97205;-54
2021/01/15 04:17:40;;;;;;;12.53;8.77;;;5.70;95.80;;;6.13;49.00;101879.63;4945023;28;97398;-55
2021/01/15 04:20:10;;;;;;;10.90;8.70;;;5.80;95.70;;;6.13;49.57;101884.00;4968849;28;97597;-55
2021/01/15 04:22:44;;;;;;;10.80;8.10;;;5.70;95.90;;;6.11;50.15;101886.63;4944028;28;100101;-56
2021/01/15 04:25:10;;;;;;;9.27;7.03;;;5.70;96.20;;;6.09;50.46;101880.50;4954973;28;97199;-56
2021/01/15 04:27:38;;;;;;;9.57;7.77;;;5.70;96.50;;;6.08;50.39;101884.00;4941010;28;97256;-56
2021/01/15 04:30:07;;;;;;;11.03;8.50;;;5.70;96.70;;;6.09;50.51;101890.97;4955482;28;99376;-57
2021/01/15 04:32:34;;;;;;;13.40;8.80;;;5.70;96.60;;;6.10;50.37;101890.09;4943764;28;99140;-57
2021/01/15 04:35:04;;;;;;;9.60;8.60;;;5.70;96.60;;;6.12;50.20;101890.97;4950310;28;97143;-54
2021/01/15 04:37:30;;;;;;;10.63;8.60;;;5.80;96.20;;;6.11;50.98;101893.59;4942730;28;96962;-53
2021/01/15 04:39:56;;;;;;;11.43;8.53;;;5.70;96.90;;;6.13;50.82;101890.09;4953016;28;99115;-55
2021/01/15 04:42:24;;;;;;;9.90;8.43;;;5.80;96.90;;;6.12;51.33;101901.47;4949757;28;116884;-57
2021/01/15 04:44:50;;;;;;;10.63;9.07;;;5.70;97.00;;;6.13;49.76;101892.72;4949060;28;99444;-56
2021/01/15 04:47:16;;;;;;;12.87;9.80;;;5.80;96.40;;;6.14;50.71;101893.59;4935487;28;100521;-53
2021/01/15 04:49:44;;;;;;;15.00;9.43;;;5.80;96.70;;;6.26;52.23;101898.88;4949476;28;100037;-57
2021/01/15 04:52:15;;;;;;;12.00;9.40;;;5.80;96.90;;;6.39;49.91;101900.63;4949675;28;98987;-55
2021/01/15 04:54:43;;;;;;;12.20;8.73;;;5.90;95.70;;;6.55;48.30;101901.53;4965436;28;97949;-57
2021/01/15 04:57:11;;;;;;;10.70;8.97;;;6.10;94.90;;;6.85;53.77;101906.78;4938615;28;97212;-56
2021/01/15 04:59:49;;;;;;;10.97;8.43;;;6.30;94.80;;;7.04;51.84;101907.63;4940152;28;100519;-53
2021/01/15 05:02:19;;;;;;;6.43;5.37;;;6.40;94.10;;;7.43;54.07;101906.66;4971162;28;97792;-55
2021/01/15 05:04:45;;;;;;;10.60;7.97;;;6.70;94.50;;;8.02;52.38;101910.81;4955493;28;99926;-56
2021/01/15 05:07:13;;;;;;;10.90;8.37;;;7.30;94.10;;;7.93;48.29;101916.09;4973068;28;97018;-57
2021/01/15 05:09:47;;;;;;;10.13;8.20;;;7.30;92.50;;;7.94;42.99;101917.84;4926777;28;99990;-57
2021/01/15 05:12:18;;;;;;;9.63;8.47;;;7.40;91.40;;;7.79;43.22;101919.66;4956467;28;99967;-56
2021/01/15 05:14:50;;;;;;;10.93;8.50;;;7.30;91.40;;;7.77;48.76;101930.19;4958748;28;97854;-57
2021/01/15 05:17:19;;;;;;;12.63;9.67;;;7.10;92.40;;;7.81;43.17;101934.56;4956092;28;97320;-57
2021/01/15 05:19:45;;;;;;;11.73;9.17;;;7.30;91.20;;;8.02;43.62;101929.19;4959110;28;98801;-57
2021/01/15 05:22:14;;;;;;;11.10;9.07;;;7.50;91.40;;;8.26;43.65;101943.97;4975546;28;114665;-55
2021/01/15 05:24:40;;;;;;;10.53;9.07;;;7.70;92.00;;;7.92;42.31;101938.00;4943746;28;99364;-57
2021/01/15 05:30:11;;;;;;;12.27;8.70;;;7.30;90.70;;;7.65;42.16;101938.09;4962039;28;102087;-58
2021/01/15 05:32:41;;;;;;;13.97;9.77;;;7.20;90.60;;;7.47;43.25;101945.16;4964587;28;99161;-56
2021/01/15 05:35:08;;;;;;;14.83;10.53;;;7.00;91.30;;;7.30;44.15;101946.06;4947255;28;97102;-58
2021/01/15 05:37:34;;;;;;;13.23;9.77;;;6.80;92.00;;;7.21;45.12;101949.56;4967437;28;97296;-58
2021/01/15 05:40:01;;;;;;;13.47;10.20;;;6.80;92.50;;;7.35;44.98;101953.06;4947107;28;100269;-55
2021/01/15 05:42:27;;;;;;;11.00;9.70;;;6.80;92.30;;;7.23;43.91;101950.44;4967629;28;97348;-57
2021/01/15 05:45:17;;;;;;;12.60;10.50;;;6.80;91.80;;;7.26;48.87;101954.84;4940471;28;97658;-57
2021/01/15 05:47:46;;;;;;;11.63;10.13;;;6.70;92.50;;;7.17;45.90;101953.09;4952332;28;97396;-58
2021/01/15 05:50:16;;;;;;;12.80;10.40;;;6.70;92.60;;;7.13;45.19;101959.22;4964484;28;96996;-57
2021/01/15 05:52:58;;;;;;;16.80;10.60;;;6.70;92.60;;;7.14;45.65;101963.59;4968962;28;97153;-56
2021/01/15 05:55:26;;;;;;;14.73;11.43;;;6.70;93.00;;;7.02;45.91;101972.34;4964085;28;96964;-58
2021/01/15 05:57:52;;;;;;;15.13;10.97;;;6.60;93.00;;;6.89;46.58;101980.22;4936082;28;98211;-57
2021/01/15 06:00:24;;;;;;;14.20;11.40;;;6.50;93.60;;;6.85;45.68;101974.97;4950279;28;97708;-58
2021/01/15 06:02:52;;;;;;;13.40;10.60;;;6.50;93.10;;;6.86;45.20;101975.84;4956491;28;104434;-57
2021/01/15 06:05:21;;;;;;;14.73;10.93;;;6.50;92.50;;;6.79;46.93;101977.56;4935240;28;97428;-58
2021/01/15 06:07:57;;;;;;;13.77;11.10;;;6.50;93.50;;;6.92;46.07;101980.19;4972371;28;97603;-58
2021/01/15 06:10:26;;;;;;;15.03;11.50;;;6.50;93.40;;;6.83;46.34;101987.22;4951522;28;97601;-58
2021/01/15 06:12:53;;;;;;;16.20;11.13;;;6.50;93.40;;;6.83;47.02;101981.97;4944947;28;102058;-58
2021/01/15 06:15:19;;;;;;;14.87;11.23;;;6.40;93.90;;;6.79;45.90;101989.81;4960585;28;97053;-57
2021/01/15 06:17:52;;;;;;;13.70;10.80;;;6.40;93.30;;;6.82;46.38;101998.59;4960253;28;97208;-57
2021/01/15 06:20:20;;;;;;;14.57;10.70;;;6.40;93.70;;;6.78;46.17;102004.66;4976493;28;99212;-57
2021/01/15 06:22:54;;;;;;;14.07;10.77;;;6.40;93.20;;;6.66;46.24;101994.19;4949041;28;99941;-57
2021/01/15 06:25:34;;;;;;;12.93;10.53;;;6.30;93.60;;;6.60;46.46;101999.41;4955310;28;96687;-57
2021/01/15 06:28:02;;;;;;;14.13;10.70;;;6.20;93.60;;;6.50;47.53;102003.75;4931971;28;99804;-57
2021/01/15 06:30:34;;;;;;;11.83;10.53;;;6.20;94.20;;;6.49;46.53;102001.13;4953899;28;100373;-57
2021/01/15 06:33:14;;;;;;;16.37;11.20;;;6.10;93.50;;;6.55;46.39;102001.16;4967620;28;99010;-57
2021/01/15 06:35:44;;;;;;;13.63;10.50;;;6.30;93.40;;;6.55;47.39;101998.53;4950982;28;96854;-57
2021/01/15 06:38:15;;;;;;;13.87;10.87;;;6.30;93.80;;;6.54;47.48;102000.28;4937419;28;97073;-58
2021/01/15 06:40:51;;;;;;;14.70;10.73;;;6.30;94.10;;;6.50;48.15;102008.13;4951629;28;100136;-57
2021/01/15 06:43:35;;;;;;;17.00;10.67;;;6.20;94.60;;;6.52;47.40;102009.91;4928814;28;98933;-57
2021/01/15 06:46:04;;;;;;;15.13;10.83;;;6.20;94.30;;;6.52;47.23;102011.63;4976218;28;97543;-57
2021/01/15 06:48:36;;;;;;;11.90;10.37;;;6.20;94.10;;;6.57;47.57;102017.75;4947583;28;97465;-57
2021/01/15 06:51:07;;;;;;;14.67;11.50;;;6.30;94.10;;;6.53;48.30;102014.25;4945037;28;98167;-58
2021/01/15 06:53:38;;;;;;;13.27;11.33;;;6.20;94.50;;;6.48;47.75;102017.72;4953490;28;97262;-55
2021/01/15 06:56:08;;;;;;;15.53;11.73;;;6.10;94.60;;;6.50;48.43;102023.84;4962148;28;96890;-57
2021/01/15 06:58:39;;;;;;;16.27;12.33;;;6.10;95.00;;;6.47;48.90;102031.72;4960340;28;97619;-58
2021/01/15 07:01:22;;;;;;;16.20;12.40;;;6.10;95.20;;;6.48;49.38;102036.06;4957955;28;99438;-57
2021/01/15 07:03:51;;;;;;;14.47;12.17;;;6.10;95.60;;;6.40;49.26;102038.69;4959255;28;97468;-56
2021/01/15 07:06:30;;;;;;;19.07;13.43;;;6.10;95.60;;;6.37;49.02;102032.56;4957834;28;97428;-57
2021/01/15 07:08:58;;;;;;;14.23;11.97;;;6.00;95.60;;;6.35;50.16;102045.63;4957773;28;97143;-56
2021/01/15 07:11:26;;;;;;;17.87;13.93;;;6.00;96.10;;;6.36;49.26;102041.28;4973956;28;98741;-56
2021/01/15 07:13:58;;;;;;;18.30;13.77;;;6.00;95.70;;;6.38;49.47;102050.91;4943980;28;99894;-57
2021/01/15 07:16:46;;;;;;;18.27;14.67;;;6.00;95.90;;;6.37;49.92;102053.53;4955410;28;96851;-57
2021/01/15 07:19:19;;;;;;;20.10;15.03;;;6.10;96.10;;;6.38;50.29;102055.28;4948789;28;97375;-56
2021/01/15 07:22:03;;;;;;;19.40;15.53;;;6.10;96.50;;;6.32;50.54;102060.47;4943607;28;99879;-57
2021/01/15 07:24:40;;;;;;;19.63;15.90;;;6.00;96.70;;;6.32;51.20;102066.59;4949765;28;102838;-60
2021/01/15 07:27:12;;;;;;;24.20;18.67;;;6.00;97.00;;;6.29;50.47;102055.25;4956246;28;97339;-54
2021/01/15 07:29:49;;;;;;;25.70;20.20;;;6.00;96.80;;;6.30;51.54;102067.47;4953356;28;97381;-57
2021/01/15 07:32:26;;;;;;;24.20;18.27;;;6.00;97.30;;;6.29;51.90;102065.72;4941896;28;99627;-57
2021/01/15 07:35:00;;;;;;;27.80;18.73;;;6.00;97.60;;;6.28;52.08;102074.44;4943244;28;99485;-54
2021/01/15 07:37:30;;;;;;;26.10;19.77;;;6.00;97.80;;;6.25;52.04;102076.19;4954550;28;97049;-55
2021/01/15 07:40:03;;;;;;;25.60;20.53;;;6.00;97.70;;;6.31;51.82;102079.69;4945857;28;97509;-57
2021/01/15 07:42:57;;;;;;;26.03;20.20;;;6.00;97.80;;;6.32;52.37;102084.94;4959725;28;98412;-57
2021/01/15 07:45:23;;;;;;;27.13;21.20;;;6.00;98.00;;;6.26;52.50;102077.94;4965423;28;102485;-56
2021/01/15 07:48:05;;;;;;;27.97;21.83;;;6.00;98.50;;;6.33;52.11;102085.81;4952403;28;97055;-58
2021/01/15 07:50:42;;;;;;;27.83;21.07;;;6.10;98.00;;;6.26;52.42;102083.19;4951071;28;97552;-59
2021/01/15 07:53:23;;;;;;;28.23;21.97;;;6.00;98.10;;;6.30;52.85;102084.06;4973421;28;98714;-55
2021/01/15 07:56:00;;;;;;;28.23;22.10;;;6.00;98.40;;;6.29;52.74;102091.94;4952443;28;99001;-58
2021/01/15 07:58:38;;;;;;;28.30;21.43;;;6.00;98.40;;;6.26;53.15;102091.06;4955672;28;97215;-57
2021/01/15 08:01:13;;;;;;;28.93;22.13;;;6.00;98.70;;;6.29;52.50;102097.16;4937533;28;100282;-57
2021/01/15 08:03:58;;;;;;;30.37;22.33;;;6.00;98.40;;;6.35;52.37;102099.81;4963420;28;97691;-57
2021/01/15 08:06:25;;;;;;;29.83;22.70;;;6.10;98.00;;;6.35;52.88;102107.66;4933779;28;99004;-57
2021/01/15 08:09:05;;;;;;;29.20;22.60;;;6.10;98.50;;;6.38;52.82;102112.94;4963924;28;97550;-58
2021/01/15 08:11:36;;;;;;;33.23;22.37;;;6.10;98.30;;;6.37;53.10;102116.44;4931161;28;97340;-57
2021/01/15 08:14:22;;;;;;;31.87;23.17;;;6.10;98.70;;;6.37;53.18;102121.69;4971664;28;97625;-54
2021/01/15 08:16:49;;;;;;;32.27;23.73;;;6.10;98.80;;;6.33;52.64;102130.38;4954534;28;97284;-57
2021/01/15 08:19:18;;;;;;;29.70;23.13;;;6.00;98.50;;;6.32;52.67;102128.63;4954376;28;97308;-57
2021/01/15 08:21:49;;;;;;;32.23;23.70;;;6.00;98.80;;;6.31;52.48;102133.00;4958195;28;98280;-57
2021/01/15 08:24:14;;;;;;;30.77;23.07;;;6.00;98.30;;;6.30;53.17;102135.59;4953881;28;98771;-57
2021/01/15 08:26:54;;;;;;;28.97;22.77;;;6.00;98.90;;;6.35;52.41;102141.75;4955288;28;99616;-56
2021/01/15 08:29:27;;;;;;;30.47;23.37;;;6.10;98.50;;;6.40;52.53;102142.66;4955252;28;96795;-56
2021/01/15 08:31:59;;;;;;;29.17;23.53;;;6.20;98.50;;;6.42;52.92;102147.03;4947867;28;98902;-57
2021/01/15 08:34:35;;;;;;;38.37;24.73;;;6.20;98.60;;;6.44;53.18;102149.66;4954642;28;99621;-56
2021/01/15 08:37:07;;;;;;;31.33;23.60;;;6.20;98.70;;;6.45;52.38;102148.78;4943775;28;99741;-55
2021/01/15 08:39:49;;;;;;;31.43;24.07;;;6.20;98.50;;;6.49;52.70;102156.69;4969077;28;96843;-57
2021/01/15 08:42:16;;;;;;;30.90;24.37;;;6.20;98.60;;;6.51;51.86;102159.34;4948229;28;97403;-58
2021/01/15 08:44:46;;;;;;;30.50;24.00;;;6.20;98.20;;;6.53;51.48;102162.84;4962872;28;97653;-57
2021/01/15 08:47:15;;;;;;;32.57;25.07;;;6.30;97.80;;;6.58;52.15;102168.97;4952031;28;99244;-58
2021/01/15 08:49:58;;;;;;;32.77;25.27;;;6.30;98.20;;;6.70;52.84;102179.50;4965545;28;97344;-56
2021/01/15 08:52:29;;;;;;;33.80;25.87;;;6.40;98.30;;;6.73;52.18;102183.88;4928010;28;97261;-60
2021/01/15 08:54:56;;;;;;;31.30;25.87;;;6.40;98.20;;;6.71;52.26;102186.50;4955663;28;97700;-56
2021/01/15 08:57:29;;;;;;;32.17;25.47;;;6.40;98.40;;;6.76;51.59;102184.78;4965571;28;98329;-57
2021/01/15 08:59:56;;;;;;;35.83;27.93;;;6.50;98.00;;;6.75;51.88;102185.66;4935206;28;97253;-58
2021/01/15 09:02:23;;;;;;;34.17;26.67;;;6.50;98.30;;;6.73;52.13;102190.00;4947700;28;97032;-57
2021/01/15 09:04:50;;;;;;;34.73;27.07;;;6.40;98.30;;;6.72;52.24;102193.50;4933050;28;98589;-58
2021/01/15 09:07:17;;;;;;;35.17;27.43;;;6.40;98.50;;;6.72;52.95;102201.38;4949105;28;99901;-59
2021/01/15 09:09:44;;;;;;;34.00;26.57;;;6.40;98.90;;;6.75;52.00;102204.00;4951144;28;97111;-58
2021/01/15 09:12:10;;;;;;;36.80;27.43;;;6.50;98.50;;;6.81;52.18;102209.31;4953783;28;97377;-53
2021/01/15 09:14:37;;;;;;;39.03;27.23;;;6.50;98.40;;;6.84;52.40;102222.41;4928962;28;100312;-56
2021/01/15 09:17:08;;;;;;;35.63;27.00;;;6.50;98.40;;;6.83;52.13;102225.91;4971787;28;97223;-58
2021/01/15 09:19:35;;;;;;;37.13;28.20;;;6.50;98.30;;;6.95;52.21;102229.47;4945020;28;96979;-59
2021/01/15 09:22:07;;;;;;;37.57;28.57;;;6.60;98.20;;;6.93;51.63;102228.56;4970706;28;97316;-56
2021/01/15 09:24:35;;;;;;;36.83;27.63;;;6.60;98.20;;;6.91;52.11;102225.94;4962443;28;99870;-55
2021/01/15 09:27:07;;;;;;;32.03;25.10;;;6.60;98.20;;;6.93;50.82;102236.44;4956564;28;99489;-55
2021/01/15 09:29:34;;;;;;;33.30;24.80;;;6.60;97.50;;;6.94;51.80;102235.56;4925675;28;98479;-56
2021/01/15 09:32:02;;;;;;;35.67;26.73;;;6.60;98.20;;;6.96;51.59;102244.34;4954489;28;97305;-61
2021/01/15 09:34:29;;;;;;;36.40;25.47;;;6.60;97.90;;;7.04;51.47;102247.84;4946297;28;98715;-58
2021/01/15 09:36:55;;;;;;;27.63;20.53;;;6.70;98.00;;;7.18;53.87;102251.41;4949033;28;97407;-59
2021/01/15 09:39:23;;;;;;;33.30;25.43;;;6.70;98.30;;;7.12;50.67;102257.53;4948548;28;99815;-60
2021/01/15 09:41:54;;;;;;;31.70;25.23;;;6.80;97.70;;;7.09;51.04;102262.78;4960501;28;97359;-59
2021/01/15 09:44:22;;;;;;;36.27;26.23;;;6.80;97.40;;;7.14;50.39;102257.53;4967309;28;100626;-57
2021/01/15 09:46:58;;;;;;;32.63;26.23;;;6.80;97.20;;;7.15;50.73;102267.16;4945985;28;99182;-59
2021/01/15 09:49:24;;;;;;;32.17;25.27;;;6.90;97.40;;;7.11;50.40;102262.78;4930296;28;98216;-60
2021/01/15 09:51:51;;;;;;;31.97;24.53;;;6.90;97.10;;;7.14;51.05;102270.66;4949103;28;96616;-58
2021/01/15 09:54:17;;;;;;;28.67;22.63;;;6.80;97.50;;;7.16;51.05;102268.91;4930684;28;103262;-56
2021/01/15 09:56:43;;;;;;;18.93;15.00;;;6.90;97.60;;;7.69;53.67;102276.06;4949910;28;97277;-57
2021/01/15 09:59:16;;;;;;;22.07;15.77;;;7.30;97.10;;;8.83;51.81;102278.69;4967944;28;97445;-59
2021/01/15 10:01:43;;;;;;;13.73;11.77;;;8.30;98.20;;;9.22;48.27;102277.66;4959931;28;97546;-55
2021/01/15 10:04:09;;;;;;;14.93;11.40;;;9.10;93.90;;;10.00;48.95;102289.50;4963147;28;100324;-57
2021/01/15 10:06:39;;;;;;;21.67;15.23;;;9.80;94.30;;;10.59;42.36;102286.38;4910288;28;101518;-59
2021/01/15 10:09:07;;;;;;;22.00;17.90;;;10.70;91.60;;;9.98;42.82;102291.25;4930077;28;98547;-61
2021/01/15 10:11:39;;;;;;;11.60;10.40;;;10.00;90.60;;;10.12;48.43;102297.31;4908527;28;97942;-60
2021/01/15 10:14:10;;;;;;;26.10;19.73;;;9.60;94.30;;;9.78;43.23;102289.66;4946092;28;100405;-57
2021/01/15 10:16:37;;;;;;;27.67;20.87;;;9.50;91.60;;;9.32;44.56;102288.16;4898317;28;98037;-62
2021/01/15 10:19:04;;;;;;;24.17;19.73;;;8.90;92.60;;;9.11;45.31;102295.28;4928810;28;98095;-60
2021/01/15 10:21:35;;;;;;;23.87;19.03;;;8.60;93.30;;;8.79;45.00;102297.97;4913570;28;102368;-59
2021/01/15 10:24:02;;;;;;;23.40;18.67;;;8.30;93.40;;;8.74;47.91;102299.75;4924301;28;103962;-61
2021/01/15 10:26:31;;;;;;;23.87;18.93;;;8.10;94.90;;;8.75;47.22;102308.53;4933754;28;97290;-60
2021/01/15 10:29:02;;;;;;;22.67;17.67;;;8.20;94.80;;;8.61;45.99;102304.16;4923126;28;99090;-61
2021/01/15 10:31:54;;;;;;;20.97;16.40;;;8.10;94.00;;;8.16;46.24;102304.16;4916924;28;98085;-61
2021/01/15 10:34:23;;;;;;;22.63;17.67;;;7.70;94.20;;;7.88;46.61;102305.88;4935386;28;101901;-60
2021/01/15 10:36:51;;;;;;;24.37;18.40;;;7.50;94.50;;;7.54;47.54;102300.56;4918007;28;100585;-61